createdAt,value
2022-12-03T00:01:29.148Z,9.05
2022-12-03T00:06:34.482Z,8.98
2022-12-03T00:11:36.692Z,9.11
2022-12-03T00:16:38.440Z,8.99
2022-12-03T00:21:40.130Z,8.88
2022-12-03T00:26:41.924Z,8.95
2022-12-03T00:31:45.736Z,8.90
2022-12-03T00:36:48.780Z,8.86
2022-12-03T00:41:50.498Z,8.91
2022-12-03T00:46:53.158Z,9.03
2022-12-03T00:51:55.035Z,9.09
2022-12-03T00:56:56.885Z,9.11
2022-12-03T01:01:58.653Z,8.95
2022-12-03T01:07:01.135Z,9.02
2022-12-03T01:12:03.050Z,9.12
2022-12-03T01:17:05.325Z,9.17
2022-12-03T01:22:08.107Z,9.11
2022-12-03T01:27:09.869Z,9.03
2022-12-03T01:32:17.944Z,9.09
2022-12-03T01:37:21.967Z,9.01
2022-12-03T01:42:29.060Z,8.94
2022-12-03T01:47:34.535Z,9.12
2022-12-03T01:52:39.245Z,9.20
2022-12-03T01:58:01.973Z,9.24
2022-12-03T02:03:11.703Z,9.28
2022-12-03T02:08:37.759Z,9.21
2022-12-03T02:13:40.243Z,9.25
2022-12-03T02:18:43.452Z,9.18
2022-12-03T02:23:54.448Z,9.37
2022-12-03T02:28:56.927Z,9.35
2022-12-03T02:33:58.819Z,9.07
2022-12-03T02:39:01.416Z,9.10
2022-12-03T02:44:06.186Z,9.05
2022-12-03T02:49:08.248Z,8.96
2022-12-03T02:54:10.010Z,8.95
2022-12-03T02:59:12.107Z,9.02
2022-12-03T03:04:14.094Z,9.11
2022-12-03T03:09:15.837Z,9.12
2022-12-03T03:14:17.646Z,9.27
2022-12-03T03:19:19.448Z,9.34
2022-12-03T03:24:23.766Z,9.24
2022-12-03T03:29:25.654Z,9.26
2022-12-03T03:34:28.112Z,9.47
2022-12-03T03:39:30.013Z,9.61
2022-12-03T03:44:33.017Z,9.77
2022-12-03T03:49:35.508Z,9.90
2022-12-03T03:54:38.723Z,9.97
2022-12-03T03:59:41.425Z,10.01
2022-12-03T04:04:43.305Z,9.93
2022-12-03T04:09:45.441Z,9.87
2022-12-03T04:14:47.266Z,9.96
2022-12-03T04:19:50.168Z,10.10
2022-12-03T04:24:52.010Z,10.11
2022-12-03T04:29:54.059Z,9.90
2022-12-03T04:35:16.098Z,9.89
2022-12-03T04:40:36.803Z,9.85
2022-12-03T04:45:38.562Z,9.85
2022-12-03T04:50:40.461Z,9.89
2022-12-03T04:55:42.444Z,9.93
2022-12-03T05:00:44.183Z,9.93
2022-12-03T05:05:46.406Z,9.90
2022-12-03T05:10:48.183Z,9.92
2022-12-03T05:15:49.965Z,9.93
2022-12-03T05:20:53.667Z,9.85
2022-12-03T05:25:55.768Z,9.73
2022-12-03T05:30:57.706Z,9.80
2022-12-03T05:36:00.147Z,9.75
2022-12-03T05:41:01.928Z,9.78
2022-12-03T05:46:03.777Z,9.88
2022-12-03T05:51:05.785Z,9.94
2022-12-03T05:56:07.746Z,9.98
2022-12-03T06:01:09.488Z,10.03
2022-12-03T06:06:11.150Z,10.01
2022-12-03T06:11:12.995Z,10.10
2022-12-03T06:16:15.044Z,10.10
2022-12-03T06:21:16.858Z,10.06
2022-12-03T06:26:18.633Z,10.15
2022-12-03T06:31:20.358Z,10.25
2022-12-03T06:36:23.491Z,10.26
2022-12-03T06:41:25.397Z,10.27
2022-12-03T06:46:27.362Z,10.29
2022-12-03T06:51:29.258Z,10.26
2022-12-03T06:56:36.822Z,10.29
2022-12-03T07:01:40.229Z,10.23
2022-12-03T07:06:42.036Z,10.08
2022-12-03T07:11:43.945Z,10.03
2022-12-03T07:16:46.027Z,9.94
2022-12-03T07:21:48.624Z,10.03
2022-12-03T07:26:50.404Z,9.92
2022-12-03T07:31:52.367Z,9.86
2022-12-03T07:36:54.275Z,9.83
2022-12-03T07:41:56.128Z,10.00
2022-12-03T07:46:58.204Z,10.17
2022-12-03T07:52:00.109Z,10.27
2022-12-03T07:57:02.382Z,10.19
2022-12-03T08:02:04.422Z,10.09
2022-12-03T08:07:06.360Z,10.16
2022-12-03T08:12:17.058Z,10.27
2022-12-03T08:17:21.380Z,10.22
2022-12-03T08:22:24.704Z,10.25
2022-12-03T08:27:26.476Z,10.24
2022-12-03T08:32:28.252Z,10.41
2022-12-03T08:37:30.147Z,10.65
2022-12-03T08:42:43.032Z,10.81
2022-12-03T08:47:44.846Z,10.87
2022-12-03T08:52:46.588Z,10.86
2022-12-03T08:57:48.482Z,10.87
2022-12-03T09:02:59.495Z,10.84
2022-12-03T09:08:01.419Z,10.91
2022-12-03T09:13:03.431Z,10.84
2022-12-03T09:18:07.439Z,10.71
2022-12-03T09:23:09.236Z,10.66
2022-12-03T09:28:10.982Z,10.65
2022-12-03T09:33:14.162Z,10.50
2022-12-03T09:38:15.979Z,10.47
2022-12-03T09:43:18.595Z,10.16
2022-12-03T09:48:20.959Z,10.04
2022-12-03T09:53:25.964Z,10.18
2022-12-03T09:58:34.324Z,10.21
2022-12-03T10:03:41.155Z,10.35
2022-12-03T10:08:43.191Z,10.32
2022-12-03T10:13:46.231Z,10.35
2022-12-03T10:18:51.444Z,10.45
2022-12-03T10:24:29.683Z,10.49
2022-12-03T10:29:34.861Z,10.58
2022-12-03T10:34:41.948Z,10.67
2022-12-03T10:40:12.028Z,10.68
2022-12-03T10:45:16.017Z,10.85
2022-12-03T10:50:20.275Z,10.91
2022-12-03T10:55:22.270Z,10.83
2022-12-03T11:00:24.208Z,10.79
2022-12-03T11:05:28.600Z,10.86
2022-12-03T11:10:30.527Z,10.85
2022-12-03T11:15:44.453Z,10.90
2022-12-03T11:20:46.476Z,10.59
2022-12-03T11:25:50.723Z,10.68
2022-12-03T11:30:56.687Z,10.91
2022-12-03T11:36:04.589Z,11.18
2022-12-03T11:41:27.502Z,11.31
2022-12-03T11:46:47.568Z,10.91
2022-12-03T11:51:50.068Z,10.74
2022-12-03T11:56:53.901Z,10.57
2022-12-03T12:01:55.788Z,10.63
2022-12-03T12:06:57.670Z,10.71
2022-12-03T12:12:37.859Z,10.64
2022-12-03T12:17:39.717Z,10.89
2022-12-03T12:22:41.535Z,11.08
2022-12-03T12:27:47.471Z,10.98
2022-12-03T12:33:01.850Z,10.99
2022-12-03T12:38:07.858Z,11.11
2022-12-03T12:43:27.925Z,11.17
2022-12-03T12:48:35.212Z,11.25
2022-12-03T12:53:39.668Z,11.12
2022-12-03T12:58:42.272Z,10.88
2022-12-03T13:03:44.151Z,10.77
2022-12-03T13:08:49.027Z,10.81
2022-12-03T13:13:52.005Z,10.87
2022-12-03T13:18:55.728Z,10.91
2022-12-03T13:23:58.173Z,10.90
2022-12-03T13:29:06.447Z,10.88
2022-12-03T13:34:16.460Z,10.83
2022-12-03T13:39:38.721Z,10.72
2022-12-03T13:44:45.650Z,10.63
2022-12-03T13:49:56.937Z,10.63
2022-12-03T13:55:03.555Z,10.65
2022-12-03T14:00:06.350Z,10.59
2022-12-03T14:05:14.763Z,10.48
2022-12-03T14:10:17.093Z,10.26
2022-12-03T14:15:19.075Z,10.20
2022-12-03T14:20:20.950Z,10.22
2022-12-03T14:25:22.833Z,10.21
2022-12-03T14:30:24.709Z,10.14
2022-12-03T14:35:26.588Z,10.09
2022-12-03T14:40:28.467Z,10.07
2022-12-03T14:45:30.806Z,10.00
2022-12-03T14:50:32.742Z,9.90
2022-12-03T14:55:34.550Z,9.85
2022-12-03T15:00:36.502Z,9.78
2022-12-03T15:05:38.283Z,9.82
2022-12-03T15:10:40.155Z,9.90
2022-12-03T15:15:41.938Z,9.85
2022-12-03T15:20:43.918Z,9.81
2022-12-03T15:25:46.028Z,9.76
2022-12-03T15:30:48.084Z,9.72
2022-12-03T15:35:49.968Z,9.83
2022-12-03T15:40:52.358Z,9.86
2022-12-03T15:45:54.679Z,9.91
2022-12-03T15:50:56.437Z,9.94
2022-12-03T15:55:59.771Z,9.96
2022-12-03T16:01:01.638Z,10.00
2022-12-03T16:06:03.700Z,9.98
2022-12-03T16:11:05.648Z,10.12
2022-12-03T16:16:07.773Z,10.22
2022-12-03T16:21:09.704Z,10.18
2022-12-03T16:26:11.502Z,10.19
2022-12-03T16:31:13.428Z,10.23
2022-12-03T16:36:15.752Z,10.29
2022-12-03T16:41:18.369Z,10.34
2022-12-03T16:46:21.187Z,10.47
2022-12-03T16:51:23.270Z,10.44
2022-12-03T16:56:25.163Z,10.44
2022-12-03T17:01:27.024Z,10.52
2022-12-03T17:06:28.876Z,10.51
2022-12-03T17:11:30.658Z,10.45
2022-12-03T17:16:32.509Z,10.40
2022-12-03T17:21:35.283Z,10.34
2022-12-03T17:26:37.155Z,10.33
2022-12-03T17:31:42.259Z,10.37
2022-12-03T17:36:44.555Z,10.36
2022-12-03T17:41:46.203Z,10.30
2022-12-03T17:46:49.060Z,10.42
2022-12-03T17:51:50.863Z,10.51
2022-12-03T17:56:52.785Z,10.59
2022-12-03T18:01:54.583Z,10.63
2022-12-03T18:07:00.835Z,10.54
2022-12-03T18:12:04.605Z,10.49
2022-12-03T18:17:06.673Z,10.48
2022-12-03T18:22:09.193Z,10.68
2022-12-03T18:27:11.181Z,10.86
2022-12-03T18:32:27.698Z,10.81
2022-12-03T18:37:32.210Z,10.71
2022-12-03T18:42:33.943Z,10.71
2022-12-03T18:47:36.036Z,10.75
2022-12-03T18:52:38.325Z,10.76
2022-12-03T18:57:40.150Z,10.73
2022-12-03T19:08:04.602Z,10.67
2022-12-03T19:13:06.558Z,10.76
2022-12-03T19:18:08.449Z,10.85
2022-12-03T19:23:10.381Z,10.90
2022-12-03T19:28:12.123Z,10.93
2022-12-03T19:33:17.993Z,10.85
2022-12-03T19:38:20.327Z,10.76
2022-12-03T19:43:22.093Z,10.67
2022-12-03T19:48:23.930Z,10.58
2022-12-03T19:53:27.216Z,10.52
2022-12-03T19:58:29.558Z,10.51
2022-12-03T20:03:31.317Z,10.51
2022-12-03T20:08:37.258Z,10.51
2022-12-03T20:13:39.491Z,10.53
2022-12-03T20:18:43.315Z,10.58
2022-12-03T20:23:46.207Z,10.58
2022-12-03T20:28:49.150Z,10.59
2022-12-03T20:33:54.490Z,10.67
2022-12-03T20:38:59.218Z,10.60
2022-12-03T20:44:02.554Z,10.46
2022-12-03T20:49:04.937Z,10.39
2022-12-03T20:54:06.831Z,10.48
2022-12-03T20:59:12.379Z,10.59
2022-12-03T21:04:16.092Z,10.75
2022-12-03T21:09:17.989Z,10.85
2022-12-03T21:14:19.761Z,10.93
2022-12-03T21:19:21.975Z,11.06
2022-12-03T21:24:23.801Z,11.10
2022-12-03T21:29:25.578Z,11.12
2022-12-03T21:34:32.583Z,11.10
2022-12-03T21:39:37.572Z,11.09
2022-12-03T21:44:39.397Z,11.14
2022-12-03T21:49:41.427Z,11.12
2022-12-03T21:54:43.234Z,11.13
2022-12-03T21:59:45.126Z,11.09
2022-12-03T22:04:50.870Z,11.04
2022-12-03T22:09:58.518Z,11.07
2022-12-03T22:15:03.011Z,11.09
2022-12-03T22:20:06.965Z,11.08
2022-12-03T22:25:09.470Z,11.05
2022-12-03T22:30:11.502Z,11.10
2022-12-03T22:35:13.291Z,11.12
2022-12-03T22:40:15.363Z,11.11
2022-12-03T22:45:17.093Z,11.07
2022-12-03T22:50:18.828Z,11.03
2022-12-03T22:55:20.462Z,11.13
2022-12-03T23:00:30.234Z,11.14
2022-12-03T23:05:38.620Z,11.17
2022-12-03T23:10:43.943Z,11.27
2022-12-03T23:15:51.547Z,11.39
2022-12-03T23:20:55.536Z,11.33
2022-12-03T23:26:10.135Z,11.32
2022-12-03T23:31:23.035Z,11.41
2022-12-03T23:36:27.600Z,11.45
2022-12-03T23:41:29.537Z,11.50
2022-12-03T23:46:31.350Z,11.45
2022-12-03T23:51:33.159Z,11.43
2022-12-03T23:56:34.916Z,11.48
